Terminal Aerodrome Forecast
Issued by NWS La Crosse, WI

Home | Current Version | Previous Version | Text Only | Print | Product List | Glossary On
Versions: 1 2 3 4 5 6 7 8 9 10 11 12 13 14 15 16 17 18 19 20 21 22 23 24 25 26 27 28 29 30 31 32 33 34 35 36 37 38 39 40 41 42
000
FTUS43 KARX 281906 AAA
TAFLSE
TAF AMD
KLSE 281906Z 2819/2918 36010KT P6SM VCSH SCT025 BKN035
     FM282100 01008KT P6SM SCT030 BKN040
     FM290200 01005KT P6SM SCT100
     FM291000 02005KT P6SM BCFG FEW004
     FM291330 35007KT P6SM FEW045=

USA.gov is the U.S. government's official web portal to all federal, state and local government web resources and services.